Data for 07/16/2018

Time Sea-Level Adjusted Pressure Absolute Pressure Temperature Relative Humidity Dew Point   
(mb) (inHg) (mb) (inHg) (C) (F) (%) (C) (F)
00:05 1023 30.21 852 25.16 20 68.1 53 10.2 50.3
00:10 1023 30.21 852 25.16 19.6 67.3 53 10 50
00:15 1023 30.21 852 25.16 19.6 67.2 54 10 50.1
00:20 1023 30.21 852 25.16 19.3 66.7 54 9.9 49.9
00:25 1023 30.21 852 25.16 19.1 66.4 54 9.8 49.7
00:30 1023 30.21 852 25.16 19.2 66.5 54 9.7 49.4
00:35 1023 30.21 852 25.16 19.2 66.6 54 9.8 49.6
00:40 1023 30.21 852 25.16 19.3 66.7 54 9.7 49.5
00:45 1023 30.21 852 25.16 19.2 66.5 54 9.9 49.8
00:50 1023 30.21 852 25.16 19 66.2 56 10.1 50.2
00:55 1023 30.21 852 25.16 18.8 65.8 56 10 50
01:00 1023 30.21 852 25.16 18.6 65.5 57 10.2 50.3
01:05 1023 30.21 852 25.16 18.4 65.2 57 10 49.9
01:10 1023 30.21 852 25.16 18.4 65.1 58 10.1 50.2
01:15 1023 30.21 852 25.16 18.1 64.6 60 10.4 50.8
01:20 1023 30.21 852 25.16 17.6 63.6 61 10.1 50.2
01:25 1023 30.21 852 25.16 17.4 63.3 62 10.2 50.4
01:30 1023 30.21 852 25.16 17.3 63.2 63 10.3 50.5
01:35 1023 30.21 852 25.16 17.3 63.2 62 10.1 50.3
01:40 1023 30.21 852 25.16 17.4 63.2 62 10 50
01:45 1023 30.21 852 25.16 17.4 63.2 62 10 50.1
01:50 1023 30.21 852 25.16 17.3 63.2 63 10.2 50.3
01:55 1023 30.21 852 25.16 17.1 62.8 63 10.1 50.2
02:00 1023 30.21 852 25.16 17 62.5 62 9.8 49.7
02:05 1023 30.21 852 25.16 16.9 62.3 63 9.9 49.9
02:10 1023 30.21 852 25.16 16.8 62.3 63 9.7 49.5
02:15 1023 30.21 852 25.16 16.7 62 63 9.6 49.4
02:20 1023 30.21 852 25.16 16.5 61.6 63 9.5 49.1
02:25 1023 30.21 852 25.16 16.4 61.4 63 9.3 48.8
02:30 1023 30.21 852 25.16 16.5 61.6 62 9.2 48.6
02:35 1023 30.21 852 25.16 16.7 62 61 9.1 48.4
02:40 1023 30.21 852 25.16 16.7 62.1 62 9.4 48.9
02:45 1023 30.21 852 25.16 16.7 62.1 62 9.5 49
02:50 1023 30.21 852 25.16 16.8 62.3 61 9.5 49.1
02:55 1023 30.21 852 25.16 16.8 62.2 62 9.6 49.3
03:00 1023 30.21 852 25.16 16.7 62.1 63 9.7 49.5
03:05 1023 30.21 852 25.16 16.8 62.2 63 9.7 49.5
03:10 1023 30.21 852 25.16 16.8 62.2 63 9.8 49.7
03:15 1023 30.21 852 25.16 16.7 62 64 9.8 49.7
03:20 1023 30.21 852 25.16 16.5 61.7 64 9.8 49.7
03:25 1023 30.21 852 25.16 16.5 61.7 63 9.6 49.4
03:30 1023 30.21 852 25.16 16.5 61.7 63 9.6 49.2
03:35 1023 30.21 852 25.16 16.4 61.4 64 9.7 49.4
03:40 1023 30.21 852 25.16 16.3 61.3 65 9.7 49.5
03:45 1023 30.21 852 25.16 16.4 61.5 63 9.5 49.1
03:50 1023 30.21 852 25.16 16.7 62 61 9.1 48.4
03:55 1022 30.18 852 25.16 16.8 62.2 63 9.7 49.5
04:00 1022 30.18 852 25.16 16.7 62 64 9.8 49.7
04:05 1022 30.18 852 25.16 16.6 61.9 63 9.6 49.3
04:10 1022 30.18 852 25.16 16.6 61.9 63 9.7 49.4
04:15 1022 30.18 852 25.16 16.6 61.8 65 9.9 49.9
04:20 1022 30.18 851 25.13 16.7 62.1 65 10.1 50.2
04:25 1022 30.18 851 25.13 16.8 62.2 65 10.1 50.3
04:30 1022 30.18 852 25.16 16.9 62.4 64 10.1 50.2
04:35 1022 30.18 852 25.16 16.9 62.4 64 10.1 50.2
04:40 1023 30.21 852 25.16 16.9 62.5 64 10.3 50.5
04:45 1023 30.21 852 25.16 16.8 62.2 65 10.2 50.3
04:50 1022 30.18 852 25.16 16.8 62.3 64 10 50
04:55 1022 30.18 852 25.16 16.8 62.2 64 10 50
05:00 1022 30.18 852 25.16 16.7 62 65 10.1 50.1
05:05 1023 30.21 852 25.16 16.6 61.8 65 10.1 50.2
05:10 1023 30.21 852 25.16 16.4 61.4 66 10.1 50.2
05:15 1023 30.21 852 25.16 16.2 61.2 65 9.6 49.3
05:20 1023 30.21 852 25.16 16.3 61.3 64 9.5 49.1
05:25 1023 30.21 852 25.16 16.2 61.1 64 9.5 49.1
05:30 1023 30.21 852 25.16 16 60.7 66 9.7 49.5
05:35 1023 30.21 852 25.16 15.8 60.5 67 9.8 49.7
05:40 1023 30.21 852 25.16 15.7 60.3 68 9.9 49.8
05:45 1023 30.21 852 25.16 15.8 60.4 68 10 50
05:50 1023 30.21 852 25.16 16 60.9 67 10 50
05:55 1023 30.21 852 25.16 16 60.7 66 9.8 49.6
06:00 1023 30.21 852 25.16 15.8 60.4 66 9.4 48.9
06:05 1023 30.21 852 25.16 15.6 60.1 65 9.1 48.3
06:10 1023 30.21 852 25.16 15.7 60.2 64 9 48.2
06:15 1023 30.21 852 25.16 15.8 60.4 66 9.4 49
06:20 1023 30.21 852 25.16 15.8 60.4 66 9.5 49.1
06:25 1023 30.21 852 25.16 15.9 60.6 65 9.3 48.8
06:30 1023 30.21 852 25.16 15.9 60.7 66 9.8 49.6
06:35 1023 30.21 852 25.16 16.2 61.2 65 9.7 49.5
06:40 1023 30.21 852 25.16 16.3 61.3 65 9.6 49.3
06:45 1023 30.21 852 25.16 16.2 61.2 64 9.5 49.1
06:50 1023 30.21 852 25.16 16.4 61.4 64 9.5 49.1
06:55 1023 30.21 852 25.16 16.4 61.5 64 9.6 49.4
07:00 1023 30.21 852 25.16 16.4 61.5 64 9.8 49.6
07:05 1023 30.21 852 25.16 16.6 61.9 64 9.9 49.8
07:10 1023 30.21 853 25.19 16.6 61.8 65 10 50
07:15 1023 30.21 853 25.19 16.4 61.6 66 10.1 50.1
07:20 1023 30.21 853 25.19 16.4 61.6 66 10 50.1
07:25 1023 30.21 852 25.16 16.4 61.5 65 10 50
07:30 1023 30.21 852 25.16 16.5 61.7 68 10.5 50.9
07:35 1023 30.21 853 25.19 16.7 62 66 10.4 50.6
07:40 1023 30.21 853 25.19 16.9 62.3 66 10.5 51
07:45 1023 30.21 853 25.19 17.1 62.8 65 10.5 51
07:50 1023 30.21 853 25.19 17.8 64 63 10.7 51.3
07:55 1023 30.21 853 25.19 18.3 64.9 62 11 51.7
08:00 1023 30.21 853 25.19 18.7 65.7 60 10.9 51.6
08:05 1023 30.21 853 25.19 19 66.3 58 10.6 51.1
08:10 1023 30.21 853 25.19 19.4 66.9 57 10.9 51.6
08:15 1023 30.21 853 25.19 19.6 67.3 57 11.1 52
08:20 1023 30.21 853 25.19 19.6 67.3 58 11.3 52.3
08:25 1023 30.21 853 25.19 19.6 67.3 58 11.1 52.1
08:30 1023 30.21 853 25.19 20.2 68.3 57 11.5 52.7
08:35 1023 30.21 853 25.19 20.3 68.5 57 11.6 52.9
08:40 1023 30.21 853 25.19 20.2 68.4 57 11.5 52.7
08:45 1023 30.21 853 25.19 20.4 68.8 55 11.2 52.1
08:50 1023 30.21 853 25.19 20.8 69.4 51 10.4 50.8
08:55 1023 30.21 853 25.19 21 69.7 50 10.2 50.4
09:00 1024 30.24 853 25.19 20.9 69.6 51 10.5 50.8
09:05 1024 30.24 853 25.19 20.9 69.5 50 10.2 50.3
09:10 1024 30.24 853 25.19 21.4 70.5 48 10.2 50.3
09:15 1024 30.24 853 25.19 21.7 71.1 47 10.1 50.2
09:20 1024 30.24 853 25.19 21.5 70.8 49 10.6 51
09:25 1024 30.24 853 25.19 21.3 70.3 48 9.8 49.7
09:30 1024 30.24 853 25.19 20.9 69.7 49 10.1 50.2
09:35 1024 30.24 853 25.19 20.8 69.4 53 10.8 51.5
09:40 1024 30.24 853 25.19 21 69.7 53 11.1 51.9
09:45 1024 30.24 853 25.19 21.1 69.9 52 10.9 51.6
09:50 1024 30.24 853 25.19 21.1 70.1 52 10.9 51.7
09:55 1024 30.24 853 25.19 21.2 70.2 51 10.9 51.7
10:00 1024 30.24 853 25.19 21 69.9 53 11.2 52.1
10:05 1024 30.24 853 25.19 20.9 69.7 48 9.8 49.6
10:10 1024 30.24 853 25.19 21 69.9 51 10.5 50.9
10:15 1024 30.24 853 25.19 21.5 70.7 45 9.3 48.8
10:20 1024 30.24 853 25.19 22.3 72.1 45 10 49.9
10:25 1024 30.24 853 25.19 23.2 73.7 43 10.1 50.2
10:30 1024 30.24 853 25.19 23.1 73.6 44 10.5 50.8
10:35 1024 30.24 853 25.19 23.2 73.7 44 10.4 50.8
10:40 1024 30.24 853 25.19 23.3 73.9 44 10.5 50.8
10:45 1024 30.24 853 25.19 23.3 74 44 10.6 51
10:50 1024 30.24 853 25.19 23.1 73.5 45 10.8 51.4
10:55 1024 30.24 853 25.19 22.3 72.1 47 10.7 51.2
11:00 1024 30.24 853 25.19 22.7 72.9 45 10.5 50.9
11:05 1024 30.24 853 25.19 23.6 74.5 43 10.6 51.2
11:10 1024 30.24 853 25.19 23.2 73.8 46 11.2 52.1
11:15 1024 30.24 853 25.19 22.8 73 46 10.6 51.2
11:20 1024 30.24 853 25.19 23 73.5 45 10.7 51.2
11:25 1024 30.24 853 25.19 23.5 74.3 44 10.8 51.4
11:30 1024 30.24 853 25.19 23.6 74.6 44 10.9 51.6
11:35 1024 30.24 853 25.19 22.9 73.3 47 11.1 52
11:40 1024 30.24 853 25.19 23 73.3 46 11 51.8
11:45 1024 30.24 853 25.19 23.2 73.8 44 10.5 51
11:50 1024 30.24 853 25.19 24.1 75.3 43 11 51.8
11:55 1024 30.24 853 25.19 23.4 74.1 44 10.7 51.2
12:00 1024 30.24 853 25.19 23.4 74.1 45 11 51.8
12:05 1024 30.24 853 25.19 24.1 75.3 42 10.7 51.3
12:10 1024 30.24 853 25.19 24.4 76 44 11.6 52.9
12:15 1024 30.24 853 25.19 24.2 75.6 42 10.8 51.5
12:20 1024 30.24 853 25.19 23.8 74.9 42 10.5 50.9
12:25 1024 30.24 853 25.19 23.7 74.7 44 11 51.7
12:30 1024 30.24 853 25.19 24.1 75.4 39 9.6 49.3
12:35 1023 30.21 853 25.19 24.3 75.7 41 10.4 50.6
12:40 1023 30.21 853 25.19 24.6 76.2 39 10.1 50.2
12:45 1023 30.21 853 25.19 25 77 37 9.6 49.3
12:50 1023 30.21 853 25.19 25.2 77.3 38 10.1 50.1
12:55 1023 30.21 853 25.19 25.2 77.3 39 10.4 50.7
13:00 1024 30.24 853 25.19 25.3 77.5 37 10 49.9
13:05 1024 30.24 853 25.19 25.3 77.5 38 10.1 50.2
13:10 1024 30.24 853 25.19 25.1 77.2 36 9.2 48.5
13:15 1024 30.24 853 25.19 25.3 77.5 36 9.5 49.1
13:20 1023 30.21 853 25.19 26.1 79 37 10.5 50.9
13:25 1023 30.21 853 25.19 26.6 79.8 35 10.2 50.3
13:30 1023 30.21 853 25.19 26.2 79.2 35 10 50
13:35 1023 30.21 853 25.19 26.4 79.5 35 10 50
13:40 1023 30.21 853 25.19 25.9 78.7 35 9.4 48.9
13:45 1023 30.21 853 25.19 25.9 78.6 34 9.1 48.4
13:50 1023 30.21 853 25.19 25.9 78.7 37 10.3 50.6
13:55 1023 30.21 852 25.16 25.3 77.5 39 10.6 51.1
14:00 1023 30.21 852 25.16 25.3 77.5 39 10.4 50.7
14:05 1023 30.21 852 25.16 25.8 78.4 42 12.2 53.9
14:10 1023 30.21 852 25.16 25.1 77.1 44 12.1 53.8
14:15 1023 30.21 852 25.16 25 77 42 11.4 52.6
14:20 1023 30.21 852 25.16 25.5 77.8 43 12 53.7
14:25 1023 30.21 852 25.16 25.7 78.3 42 11.9 53.5
14:30 1023 30.21 852 25.16 25.6 78.1 41 11.8 53.2
14:35 1023 30.21 852 25.16 26 78.8 41 11.9 53.5
14:40 1023 30.21 852 25.16 26 78.7 42 12.2 54
14:45 1023 30.21 852 25.16 26 78.9 43 12.6 54.6
14:50 1023 30.21 852 25.16 25.4 77.8 42 11.9 53.4
14:55 1023 30.21 852 25.16 25.3 77.5 42 11.8 53.2
15:00 1023 30.21 852 25.16 26 78.8 39 11.4 52.5
15:05 1023 30.21 852 25.16 26.5 79.6 40 11.9 53.4
15:10 1023 30.21 852 25.16 26.5 79.7 42 12.6 54.7
15:15 1023 30.21 852 25.16 26.3 79.3 41 12.2 53.9
15:20 1023 30.21 852 25.16 26.5 79.8 40 11.9 53.5
15:25 1023 30.21 852 25.16 26.1 79 40 11.7 53
15:30 1023 30.21 852 25.16 26.6 79.8 34 9.5 49.1
15:35 1023 30.21 852 25.16 26.9 80.4 32 9.2 48.5
15:40 1023 30.21 852 25.16 26.9 80.3 35 10.2 50.3
15:45 1023 30.21 852 25.16 26.7 80.1 34 9.9 49.7
15:50 1023 30.21 852 25.16 26.6 79.9 38 11.2 52.2
15:55 1023 30.21 852 25.16 26.1 79 35 9.7 49.4
16:00 1023 30.21 852 25.16 26.7 80 35 10.2 50.4
16:05 1023 30.21 852 25.16 26.9 80.4 33 9.3 48.8
16:10 1023 30.21 852 25.16 27.4 81.4 30 8.4 47.2
16:15 1023 30.21 852 25.16 28.1 82.5 30 9 48.2
16:20 1022 30.18 852 25.16 28.2 82.8 30 9.2 48.5
16:25 1022 30.18 852 25.16 27.9 82.2 30 9 48.2
16:30 1022 30.18 852 25.16 28.6 83.4 29 9.2 48.6
16:35 1022 30.18 852 25.16 29.1 84.4 28 9.3 48.7
16:40 1022 30.18 852 25.16 28.4 83.1 30 9.3 48.8
16:45 1022 30.18 852 25.16 28.7 83.6 30 9.9 49.8
16:50 1022 30.18 852 25.16 27.7 81.9 31 9.4 48.8
16:55 1022 30.18 851 25.13 28 82.4 30 9 48.2
17:00 1022 30.18 851 25.13 28.7 83.7 29 9.2 48.6
17:05 1022 30.18 851 25.13 29 84.2 29 9.3 48.8
17:10 1022 30.18 851 25.13 28.9 84.1 29 9.2 48.6
17:15 1022 30.18 851 25.13 28.5 83.4 30 9.4 48.9
17:20 1022 30.18 851 25.13 28.4 83.2 28 8.3 46.9
17:25 1022 30.18 851 25.13 27.6 81.8 29 8.3 46.9
17:30 1022 30.18 851 25.13 27.2 81 30 8.2 46.7
17:35 1022 30.18 851 25.13 27.5 81.5 30 8.5 47.4
17:40 1022 30.18 851 25.13 28 82.4 30 9.3 48.8
17:45 1022 30.18 851 25.13 28.2 82.7 31 9.9 49.8
17:50 1022 30.18 851 25.13 28.5 83.3 29 8.9 48.1
17:55 1022 30.18 851 25.13 28.4 83.1 29 8.8 47.8
18:00 1022 30.18 851 25.13 27.8 82.1 30 9 48.2
18:05 1022 30.18 851 25.13 27.6 81.6 29 8.2 46.8
18:10 1022 30.18 851 25.13 27.8 82 28 8.1 46.5
18:15 1021 30.15 851 25.13 27.8 82.1 30 8.8 47.8
18:20 1021 30.15 851 25.13 27.4 81.3 28 7.7 45.8
18:25 1021 30.15 851 25.13 27.4 81.3 27 7.1 44.8
18:30 1021 30.15 851 25.13 27.5 81.5 26 6.5 43.8
18:35 1021 30.15 851 25.13 27.4 81.3 27 7.1 44.7
18:40 1021 30.15 851 25.13 27.2 81 29 8 46.4
18:45 1021 30.15 851 25.13 26.9 80.5 30 8.1 46.6
18:50 1021 30.15 851 25.13 26.7 80.1 32 8.7 47.7
18:55 1022 30.18 851 25.13 26.6 79.9 31 8.4 47.2
19:00 1022 30.18 851 25.13 26.6 79.9 30 8.1 46.5
19:05 1022 30.18 851 25.13 26.5 79.6 31 8.3 46.9
19:10 1022 30.18 851 25.13 26.4 79.5 31 8.3 47
19:15 1022 30.18 851 25.13 26.4 79.4 32 8.7 47.6
19:20 1022 30.18 851 25.13 26.1 79 33 8.8 47.9
19:25 1022 30.18 851 25.13 26 78.7 34 9.3 48.8
19:30 1022 30.18 851 25.13 25.8 78.4 36 9.9 49.8
19:35 1022 30.18 851 25.13 25.6 78 39 10.8 51.4
19:40 1022 30.18 851 25.13 25.4 77.7 40 11.1 52
19:45 1022 30.18 851 25.13 25.4 77.6 42 11.6 52.9
19:50 1022 30.18 851 25.13 25.3 77.6 44 12.5 54.5
19:55 1022 30.18 851 25.13 25.5 77.9 42 11.7 53.1
20:00 1022 30.18 851 25.13 25.5 77.8 43 12.2 53.9
20:05 1022 30.18 851 25.13 25.2 77.3 43 12 53.5
20:10 1022 30.18 851 25.13 24.8 76.6 39 9.9 49.9
20:15 1022 30.18 851 25.13 24.5 76.1 35 8.4 47.2
20:20 1022 30.18 851 25.13 24.3 75.7 34 7.8 46.1
20:25 1022 30.18 851 25.13 24.2 75.5 35 8 46.4
20:30 1022 30.18 851 25.13 24 75.2 36 8.1 46.5
20:35 1022 30.18 851 25.13 24 75.2 36 8.3 46.9
20:40 1022 30.18 851 25.13 24 75.2 36 8.1 46.6
20:45 1022 30.18 851 25.13 24.1 75.4 37 8.9 48
20:50 1022 30.18 851 25.13 23.7 74.6 40 9.6 49.4
20:55 1021 30.15 851 25.13 22.9 73.3 42 9.5 49.1
21:00 1021 30.15 851 25.13 22.9 73.2 43 9.9 49.8
21:05 1022 30.18 851 25.13 22.7 72.8 44 10.1 50.2
21:10 1022 30.18 851 25.13 22.5 72.4 46 10.4 50.7
21:15 1022 30.18 851 25.13 22.3 72.1 45 10 50
21:20 1022 30.18 851 25.13 22.3 72.1 45 10 50
21:25 1022 30.18 851 25.13 22.3 72.1 47 10.7 51.3
21:30 1022 30.18 851 25.13 22 71.6 49 10.9 51.7
21:35 1022 30.18 851 25.13 21.9 71.3 54 12.2 53.9
21:40 1022 30.18 851 25.13 21.6 70.8 50 11 51.7
21:45 1022 30.18 851 25.13 21.5 70.7 50 10.8 51.5
21:50 1022 30.18 851 25.13 21.5 70.7 51 11 51.8
21:55 1022 30.18 851 25.13 21.4 70.5 51 11 51.9
22:00 1022 30.18 851 25.13 21.3 70.4 53 11.4 52.5
22:05 1022 30.18 851 25.13 21.1 69.9 54 11.5 52.7
22:10 1022 30.18 851 25.13 21 69.8 53 11.3 52.3
22:15 1022 30.18 851 25.13 20.8 69.4 55 11.6 52.9
22:20 1022 30.18 851 25.13 20.5 68.9 54 11 51.9
22:25 1022 30.18 851 25.13 20.4 68.6 56 11.4 52.5
22:30 1022 30.18 851 25.13 20.4 68.8 52 10.4 50.6
22:35 1022 30.18 851 25.13 20.6 69 54 11 51.9
22:40 1022 30.18 851 25.13 20.9 69.5 51 10.5 50.9
22:45 1022 30.18 851 25.13 21 69.7 52 10.9 51.7
22:50 1022 30.18 851 25.13 20.7 69.3 52 10.8 51.4
22:55 1022 30.18 851 25.13 20.7 69.2 53 10.9 51.7
23:00 1022 30.18 851 25.13 20.5 69 54 11 51.8
23:05 1022 30.18 851 25.13 19.9 67.9 54 10.5 50.9
23:10 1022 30.18 851 25.13 19.3 66.7 57 10.7 51.2
23:15 1022 30.18 852 25.16 18.9 66 57 10.3 50.5
23:20 1022 30.18 852 25.16 18.8 65.8 57 10.2 50.3
23:25 1022 30.18 852 25.16 18.7 65.6 58 10.3 50.6
23:30 1022 30.18 851 25.13 18.4 65.2 57 10 50
23:35 1022 30.18 851 25.13 18.2 64.8 58 10 49.9
23:40 1022 30.18 851 25.13 18.1 64.6 57 9.6 49.3
23:45 1022 30.18 852 25.16 18.1 64.7 57 9.6 49.3
23:50 1022 30.18 852 25.16 18.1 64.6 57 9.5 49.1
23:55 1022 30.18 852 25.16 18.2 64.8 56 9.4 48.9
24:00 1022 30.18 852 25.16 18.3 64.9 56 9.4 48.9